sensor_id;sensor_type;location;lat;lon;timestamp;P1;durP1;ratioP1;P2;durP2;ratioP2
5052;SDS011;2545;50.892;5.740;2023-12-20T00:02:08;25.33;;;12.70;;
5052;SDS011;2545;50.892;5.740;2023-12-20T00:04:33;24.53;;;13.90;;
5052;SDS011;2545;50.892;5.740;2023-12-20T00:06:58;23.47;;;13.00;;
5052;SDS011;2545;50.892;5.740;2023-12-20T00:09:24;27.00;;;13.90;;
5052;SDS011;2545;50.892;5.740;2023-12-20T00:11:49;18.73;;;11.00;;
5052;SDS011;2545;50.892;5.740;2023-12-20T00:14:14;26.47;;;13.50;;
5052;SDS011;2545;50.892;5.740;2023-12-20T00:16:39;20.77;;;11.60;;
5052;SDS011;2545;50.892;5.740;2023-12-20T00:19:08;19.07;;;10.10;;
5052;SDS011;2545;50.892;5.740;2023-12-20T00:21:33;24.80;;;9.13;;
5052;SDS011;2545;50.892;5.740;2023-12-20T00:24:00;17.70;;;8.93;;
5052;SDS011;2545;50.892;5.740;2023-12-20T00:26:25;16.00;;;8.80;;
5052;SDS011;2545;50.892;5.740;2023-12-20T00:28:51;25.30;;;7.73;;
5052;SDS011;2545;50.892;5.740;2023-12-20T00:31:16;17.70;;;6.20;;
5052;SDS011;2545;50.892;5.740;2023-12-20T00:33:41;25.33;;;6.93;;
5052;SDS011;2545;50.892;5.740;2023-12-20T00:36:08;24.50;;;6.50;;
5052;SDS011;2545;50.892;5.740;2023-12-20T00:38:34;23.20;;;6.00;;
5052;SDS011;2545;50.892;5.740;2023-12-20T00:41:00;10.20;;;4.57;;
5052;SDS011;2545;50.892;5.740;2023-12-20T00:43:25;23.73;;;5.10;;
5052;SDS011;2545;50.892;5.740;2023-12-20T00:45:50;15.27;;;4.70;;
5052;SDS011;2545;50.892;5.740;2023-12-20T00:48:16;34.53;;;5.57;;
5052;SDS011;2545;50.892;5.740;2023-12-20T00:50:41;16.93;;;5.03;;
5052;SDS011;2545;50.892;5.740;2023-12-20T00:53:06;16.23;;;4.67;;
5052;SDS011;2545;50.892;5.740;2023-12-20T00:55:33;17.90;;;4.20;;
5052;SDS011;2545;50.892;5.740;2023-12-20T00:57:58;10.30;;;3.27;;
5052;SDS011;2545;50.892;5.740;2023-12-20T01:00:25;15.13;;;3.40;;
5052;SDS011;2545;50.892;5.740;2023-12-20T01:02:51;19.37;;;4.20;;
5052;SDS011;2545;50.892;5.740;2023-12-20T01:05:17;18.20;;;4.07;;
5052;SDS011;2545;50.892;5.740;2023-12-20T01:07:44;29.50;;;5.37;;
5052;SDS011;2545;50.892;5.740;2023-12-20T01:10:09;17.17;;;4.97;;
5052;SDS011;2545;50.892;5.740;2023-12-20T01:12:35;12.33;;;4.00;;
5052;SDS011;2545;50.892;5.740;2023-12-20T01:15:01;10.30;;;4.93;;
5052;SDS011;2545;50.892;5.740;2023-12-20T01:17:26;19.50;;;3.63;;
5052;SDS011;2545;50.892;5.740;2023-12-20T01:19:52;20.43;;;4.07;;
5052;SDS011;2545;50.892;5.740;2023-12-20T01:22:17;16.07;;;3.60;;
5052;SDS011;2545;50.892;5.740;2023-12-20T01:24:43;8.17;;;3.30;;
5052;SDS011;2545;50.892;5.740;2023-12-20T01:27:08;17.03;;;3.33;;
5052;SDS011;2545;50.892;5.740;2023-12-20T01:29:33;23.57;;;4.47;;
5052;SDS011;2545;50.892;5.740;2023-12-20T01:31:58;15.27;;;3.17;;
5052;SDS011;2545;50.892;5.740;2023-12-20T01:34:26;15.50;;;3.60;;
5052;SDS011;2545;50.892;5.740;2023-12-20T01:36:51;9.67;;;3.70;;
5052;SDS011;2545;50.892;5.740;2023-12-20T01:39:17;13.87;;;3.13;;
5052;SDS011;2545;50.892;5.740;2023-12-20T01:41:42;11.67;;;4.03;;
5052;SDS011;2545;50.892;5.740;2023-12-20T01:44:08;15.27;;;4.10;;
5052;SDS011;2545;50.892;5.740;2023-12-20T01:46:33;18.63;;;4.00;;
5052;SDS011;2545;50.892;5.740;2023-12-20T01:48:59;19.63;;;5.43;;
5052;SDS011;2545;50.892;5.740;2023-12-20T01:51:25;22.47;;;4.30;;
5052;SDS011;2545;50.892;5.740;2023-12-20T01:53:52;22.10;;;5.37;;
5052;SDS011;2545;50.892;5.740;2023-12-20T01:56:20;18.57;;;5.50;;
5052;SDS011;2545;50.892;5.740;2023-12-20T01:58:46;18.17;;;4.93;;
5052;SDS011;2545;50.892;5.740;2023-12-20T02:01:12;28.70;;;4.17;;
5052;SDS011;2545;50.892;5.740;2023-12-20T02:03:39;19.10;;;4.10;;
5052;SDS011;2545;50.892;5.740;2023-12-20T02:06:06;18.63;;;4.80;;
5052;SDS011;2545;50.892;5.740;2023-12-20T02:08:32;12.50;;;4.57;;
5052;SDS011;2545;50.892;5.740;2023-12-20T02:10:58;14.37;;;4.20;;
5052;SDS011;2545;50.892;5.740;2023-12-20T02:13:27;15.40;;;5.30;;
5052;SDS011;2545;50.892;5.740;2023-12-20T02:15:52;12.07;;;3.97;;
5052;SDS011;2545;50.892;5.740;2023-12-20T02:18:21;13.60;;;3.43;;
5052;SDS011;2545;50.892;5.740;2023-12-20T02:20:46;13.37;;;2.87;;
5052;SDS011;2545;50.892;5.740;2023-12-20T02:23:12;11.87;;;3.63;;
5052;SDS011;2545;50.892;5.740;2023-12-20T02:25:37;20.60;;;4.20;;
5052;SDS011;2545;50.892;5.740;2023-12-20T02:28:02;21.10;;;3.67;;
5052;SDS011;2545;50.892;5.740;2023-12-20T02:30:29;19.87;;;4.07;;
5052;SDS011;2545;50.892;5.740;2023-12-20T02:32:54;7.53;;;3.70;;
5052;SDS011;2545;50.892;5.740;2023-12-20T02:35:20;9.23;;;3.47;;
5052;SDS011;2545;50.892;5.740;2023-12-20T02:37:45;6.63;;;3.47;;
5052;SDS011;2545;50.892;5.740;2023-12-20T02:40:10;8.70;;;3.27;;
5052;SDS011;2545;50.892;5.740;2023-12-20T02:42:36;18.17;;;3.40;;
5052;SDS011;2545;50.892;5.740;2023-12-20T02:45:01;16.07;;;4.27;;
5052;SDS011;2545;50.892;5.740;2023-12-20T02:47:27;9.43;;;3.47;;
5052;SDS011;2545;50.892;5.740;2023-12-20T02:49:53;18.90;;;3.90;;
5052;SDS011;2545;50.892;5.740;2023-12-20T02:52:18;20.93;;;4.20;;
5052;SDS011;2545;50.892;5.740;2023-12-20T02:54:44;17.63;;;3.47;;
5052;SDS011;2545;50.892;5.740;2023-12-20T02:57:09;14.93;;;3.57;;
5052;SDS011;2545;50.892;5.740;2023-12-20T02:59:34;14.13;;;3.80;;
5052;SDS011;2545;50.892;5.740;2023-12-20T03:02:00;21.70;;;4.60;;
5052;SDS011;2545;50.892;5.740;2023-12-20T03:04:25;12.23;;;4.00;;
5052;SDS011;2545;50.892;5.740;2023-12-20T03:06:50;13.47;;;3.87;;
5052;SDS011;2545;50.892;5.740;2023-12-20T03:09:16;16.53;;;4.67;;
5052;SDS011;2545;50.892;5.740;2023-12-20T03:11:41;11.33;;;3.73;;
5052;SDS011;2545;50.892;5.740;2023-12-20T03:14:06;7.83;;;3.77;;
5052;SDS011;2545;50.892;5.740;2023-12-20T03:16:31;13.17;;;4.17;;
5052;SDS011;2545;50.892;5.740;2023-12-20T03:18:58;12.87;;;3.47;;
5052;SDS011;2545;50.892;5.740;2023-12-20T03:21:23;10.37;;;4.27;;
5052;SDS011;2545;50.892;5.740;2023-12-20T03:23:49;25.63;;;4.30;;
5052;SDS011;2545;50.892;5.740;2023-12-20T03:26:14;20.43;;;4.37;;
5052;SDS011;2545;50.892;5.740;2023-12-20T03:28:40;11.83;;;3.73;;
5052;SDS011;2545;50.892;5.740;2023-12-20T03:31:05;11.53;;;3.70;;
5052;SDS011;2545;50.892;5.740;2023-12-20T03:33:31;13.03;;;4.00;;
5052;SDS011;2545;50.892;5.740;2023-12-20T03:35:56;13.03;;;3.40;;
5052;SDS011;2545;50.892;5.740;2023-12-20T03:38:22;16.13;;;3.87;;
5052;SDS011;2545;50.892;5.740;2023-12-20T03:40:49;14.80;;;3.87;;
5052;SDS011;2545;50.892;5.740;2023-12-20T03:43:14;19.20;;;4.17;;
5052;SDS011;2545;50.892;5.740;2023-12-20T03:45:40;16.83;;;4.00;;
5052;SDS011;2545;50.892;5.740;2023-12-20T03:48:08;12.43;;;4.20;;
5052;SDS011;2545;50.892;5.740;2023-12-20T03:50:34;11.60;;;3.60;;
5052;SDS011;2545;50.892;5.740;2023-12-20T03:53:01;10.47;;;3.23;;
5052;SDS011;2545;50.892;5.740;2023-12-20T03:55:27;11.83;;;3.70;;
5052;SDS011;2545;50.892;5.740;2023-12-20T03:57:53;27.60;;;4.07;;
5052;SDS011;2545;50.892;5.740;2023-12-20T04:00:18;17.80;;;4.37;;
5052;SDS011;2545;50.892;5.740;2023-12-20T04:02:44;21.97;;;4.00;;
5052;SDS011;2545;50.892;5.740;2023-12-20T04:05:09;10.07;;;3.53;;
5052;SDS011;2545;50.892;5.740;2023-12-20T04:07:35;15.53;;;3.63;;
5052;SDS011;2545;50.892;5.740;2023-12-20T04:10:01;17.90;;;3.20;;
5052;SDS011;2545;50.892;5.740;2023-12-20T04:12:28;23.87;;;4.77;;
5052;SDS011;2545;50.892;5.740;2023-12-20T04:14:56;13.97;;;3.80;;
5052;SDS011;2545;50.892;5.740;2023-12-20T04:17:21;28.53;;;3.60;;
5052;SDS011;2545;50.892;5.740;2023-12-20T04:19:48;12.80;;;2.93;;
5052;SDS011;2545;50.892;5.740;2023-12-20T04:22:13;11.40;;;3.77;;
5052;SDS011;2545;50.892;5.740;2023-12-20T04:24:39;19.73;;;4.57;;
5052;SDS011;2545;50.892;5.740;2023-12-20T04:27:04;14.93;;;4.50;;
5052;SDS011;2545;50.892;5.740;2023-12-20T04:29:29;13.23;;;3.67;;
5052;SDS011;2545;50.892;5.740;2023-12-20T04:31:56;16.40;;;4.40;;
5052;SDS011;2545;50.892;5.740;2023-12-20T04:34:22;10.17;;;3.43;;
5052;SDS011;2545;50.892;5.740;2023-12-20T04:36:47;10.20;;;3.63;;
5052;SDS011;2545;50.892;5.740;2023-12-20T04:39:13;11.17;;;3.20;;
5052;SDS011;2545;50.892;5.740;2023-12-20T04:41:38;14.20;;;5.07;;
5052;SDS011;2545;50.892;5.740;2023-12-20T04:44:04;24.73;;;3.53;;
5052;SDS011;2545;50.892;5.740;2023-12-20T04:46:31;18.60;;;4.60;;
5052;SDS011;2545;50.892;5.740;2023-12-20T04:48:56;18.50;;;4.83;;
5052;SDS011;2545;50.892;5.740;2023-12-20T04:51:22;16.87;;;3.97;;
5052;SDS011;2545;50.892;5.740;2023-12-20T04:53:47;18.53;;;3.70;;
5052;SDS011;2545;50.892;5.740;2023-12-20T04:56:14;12.13;;;3.67;;
5052;SDS011;2545;50.892;5.740;2023-12-20T04:58:39;7.00;;;3.20;;
5052;SDS011;2545;50.892;5.740;2023-12-20T05:01:05;18.83;;;4.17;;
5052;SDS011;2545;50.892;5.740;2023-12-20T05:03:32;16.50;;;4.10;;
5052;SDS011;2545;50.892;5.740;2023-12-20T05:05:57;26.20;;;5.00;;
5052;SDS011;2545;50.892;5.740;2023-12-20T05:08:23;16.23;;;4.20;;
5052;SDS011;2545;50.892;5.740;2023-12-20T05:10:48;22.50;;;4.60;;
5052;SDS011;2545;50.892;5.740;2023-12-20T05:13:14;21.93;;;4.70;;
5052;SDS011;2545;50.892;5.740;2023-12-20T05:15:39;19.70;;;4.37;;
5052;SDS011;2545;50.892;5.740;2023-12-20T05:18:04;20.20;;;5.00;;
5052;SDS011;2545;50.892;5.740;2023-12-20T05:20:30;24.43;;;5.73;;
5052;SDS011;2545;50.892;5.740;2023-12-20T05:22:55;15.67;;;4.03;;
5052;SDS011;2545;50.892;5.740;2023-12-20T05:25:21;23.10;;;5.10;;
5052;SDS011;2545;50.892;5.740;2023-12-20T05:27:46;16.17;;;4.30;;
5052;SDS011;2545;50.892;5.740;2023-12-20T05:30:13;24.67;;;5.30;;
5052;SDS011;2545;50.892;5.740;2023-12-20T05:32:38;23.20;;;5.20;;
5052;SDS011;2545;50.892;5.740;2023-12-20T05:35:04;10.77;;;4.67;;
5052;SDS011;2545;50.892;5.740;2023-12-20T05:37:29;12.10;;;4.27;;
5052;SDS011;2545;50.892;5.740;2023-12-20T05:39:55;19.50;;;5.87;;
5052;SDS011;2545;50.892;5.740;2023-12-20T05:42:20;28.27;;;4.50;;
5052;SDS011;2545;50.892;5.740;2023-12-20T05:44:45;12.13;;;4.07;;
5052;SDS011;2545;50.892;5.740;2023-12-20T05:47:10;24.13;;;4.80;;
5052;SDS011;2545;50.892;5.740;2023-12-20T05:49:36;21.63;;;5.00;;
5052;SDS011;2545;50.892;5.740;2023-12-20T05:52:01;13.67;;;4.73;;
5052;SDS011;2545;50.892;5.740;2023-12-20T05:54:26;16.93;;;5.00;;
5052;SDS011;2545;50.892;5.740;2023-12-20T05:56:52;19.10;;;5.93;;
5052;SDS011;2545;50.892;5.740;2023-12-20T05:59:17;11.00;;;4.43;;
5052;SDS011;2545;50.892;5.740;2023-12-20T06:01:42;8.80;;;4.23;;
5052;SDS011;2545;50.892;5.740;2023-12-20T06:04:08;27.27;;;4.90;;
5052;SDS011;2545;50.892;5.740;2023-12-20T06:06:33;28.23;;;5.87;;
5052;SDS011;2545;50.892;5.740;2023-12-20T06:08:58;15.83;;;5.17;;
5052;SDS011;2545;50.892;5.740;2023-12-20T06:11:24;31.97;;;5.10;;
5052;SDS011;2545;50.892;5.740;2023-12-20T06:13:50;12.13;;;5.40;;
5052;SDS011;2545;50.892;5.740;2023-12-20T06:16:18;15.97;;;4.40;;
5052;SDS011;2545;50.892;5.740;2023-12-20T06:18:43;18.13;;;5.50;;
5052;SDS011;2545;50.892;5.740;2023-12-20T06:21:10;18.20;;;5.30;;
5052;SDS011;2545;50.892;5.740;2023-12-20T06:23:38;19.07;;;4.23;;
5052;SDS011;2545;50.892;5.740;2023-12-20T06:26:03;9.10;;;3.83;;
5052;SDS011;2545;50.892;5.740;2023-12-20T06:28:29;21.63;;;4.33;;
5052;SDS011;2545;50.892;5.740;2023-12-20T06:30:55;15.80;;;5.13;;
5052;SDS011;2545;50.892;5.740;2023-12-20T06:33:23;23.00;;;4.57;;
5052;SDS011;2545;50.892;5.740;2023-12-20T06:35:49;13.57;;;3.93;;
5052;SDS011;2545;50.892;5.740;2023-12-20T06:38:15;18.07;;;4.57;;
5052;SDS011;2545;50.892;5.740;2023-12-20T06:40:41;18.73;;;5.67;;
5052;SDS011;2545;50.892;5.740;2023-12-20T06:43:08;14.80;;;5.67;;
5052;SDS011;2545;50.892;5.740;2023-12-20T06:45:34;17.30;;;4.40;;
5052;SDS011;2545;50.892;5.740;2023-12-20T06:47:59;28.03;;;5.43;;
5052;SDS011;2545;50.892;5.740;2023-12-20T06:50:24;19.97;;;5.03;;
5052;SDS011;2545;50.892;5.740;2023-12-20T06:52:50;17.60;;;4.57;;
5052;SDS011;2545;50.892;5.740;2023-12-20T06:55:16;8.00;;;4.67;;
5052;SDS011;2545;50.892;5.740;2023-12-20T06:57:42;24.43;;;6.77;;
5052;SDS011;2545;50.892;5.740;2023-12-20T07:00:07;23.60;;;5.80;;
5052;SDS011;2545;50.892;5.740;2023-12-20T07:02:33;17.53;;;4.83;;
5052;SDS011;2545;50.892;5.740;2023-12-20T07:04:59;11.83;;;3.93;;
5052;SDS011;2545;50.892;5.740;2023-12-20T07:07:24;13.20;;;5.00;;
5052;SDS011;2545;50.892;5.740;2023-12-20T07:09:50;22.00;;;6.23;;
5052;SDS011;2545;50.892;5.740;2023-12-20T07:12:15;13.80;;;5.10;;
5052;SDS011;2545;50.892;5.740;2023-12-20T07:14:40;20.20;;;4.80;;
5052;SDS011;2545;50.892;5.740;2023-12-20T07:17:07;20.33;;;5.17;;
5052;SDS011;2545;50.892;5.740;2023-12-20T07:19:37;25.50;;;6.10;;
5052;SDS011;2545;50.892;5.740;2023-12-20T07:22:03;16.40;;;4.77;;
5052;SDS011;2545;50.892;5.740;2023-12-20T07:24:29;21.70;;;5.67;;
5052;SDS011;2545;50.892;5.740;2023-12-20T07:26:54;27.47;;;5.30;;
5052;SDS011;2545;50.892;5.740;2023-12-20T07:29:20;17.83;;;5.17;;
5052;SDS011;2545;50.892;5.740;2023-12-20T07:31:48;23.40;;;5.03;;
5052;SDS011;2545;50.892;5.740;2023-12-20T07:34:14;10.40;;;5.20;;
5052;SDS011;2545;50.892;5.740;2023-12-20T07:36:39;23.23;;;5.70;;
5052;SDS011;2545;50.892;5.740;2023-12-20T07:39:05;14.83;;;4.80;;
5052;SDS011;2545;50.892;5.740;2023-12-20T07:41:31;15.17;;;5.20;;
5052;SDS011;2545;50.892;5.740;2023-12-20T07:43:56;18.03;;;4.83;;
5052;SDS011;2545;50.892;5.740;2023-12-20T07:46:22;10.33;;;4.00;;
5052;SDS011;2545;50.892;5.740;2023-12-20T07:48:50;18.40;;;5.93;;
5052;SDS011;2545;50.892;5.740;2023-12-20T07:51:16;14.17;;;4.90;;
5052;SDS011;2545;50.892;5.740;2023-12-20T07:53:41;16.63;;;4.57;;
5052;SDS011;2545;50.892;5.740;2023-12-20T07:56:13;12.40;;;4.53;;
5052;SDS011;2545;50.892;5.740;2023-12-20T07:58:40;18.47;;;5.87;;
5052;SDS011;2545;50.892;5.740;2023-12-20T08:01:05;13.57;;;5.50;;
5052;SDS011;2545;50.892;5.740;2023-12-20T08:03:30;18.13;;;5.30;;
5052;SDS011;2545;50.892;5.740;2023-12-20T08:05:56;18.93;;;5.50;;
5052;SDS011;2545;50.892;5.740;2023-12-20T08:08:24;15.13;;;5.63;;
5052;SDS011;2545;50.892;5.740;2023-12-20T08:10:49;24.43;;;5.77;;
5052;SDS011;2545;50.892;5.740;2023-12-20T08:13:15;16.23;;;5.47;;
5052;SDS011;2545;50.892;5.740;2023-12-20T08:15:40;23.57;;;5.47;;
5052;SDS011;2545;50.892;5.740;2023-12-20T08:18:06;17.73;;;5.90;;
5052;SDS011;2545;50.892;5.740;2023-12-20T08:20:31;10.17;;;5.00;;
5052;SDS011;2545;50.892;5.740;2023-12-20T08:22:56;20.30;;;4.63;;
5052;SDS011;2545;50.892;5.740;2023-12-20T08:25:22;16.90;;;5.53;;
5052;SDS011;2545;50.892;5.740;2023-12-20T08:27:47;12.33;;;4.20;;
5052;SDS011;2545;50.892;5.740;2023-12-20T08:30:12;28.17;;;5.43;;
5052;SDS011;2545;50.892;5.740;2023-12-20T08:32:38;22.40;;;5.60;;
5052;SDS011;2545;50.892;5.740;2023-12-20T08:35:03;11.17;;;3.93;;
5052;SDS011;2545;50.892;5.740;2023-12-20T08:37:29;22.70;;;6.67;;
5052;SDS011;2545;50.892;5.740;2023-12-20T08:39:55;20.53;;;4.00;;
5052;SDS011;2545;50.892;5.740;2023-12-20T08:42:21;28.10;;;5.67;;
5052;SDS011;2545;50.892;5.740;2023-12-20T08:44:46;17.50;;;4.60;;
5052;SDS011;2545;50.892;5.740;2023-12-20T08:47:11;13.47;;;4.07;;
5052;SDS011;2545;50.892;5.740;2023-12-20T08:49:38;10.80;;;4.37;;
5052;SDS011;2545;50.892;5.740;2023-12-20T08:52:04;14.60;;;5.20;;
5052;SDS011;2545;50.892;5.740;2023-12-20T08:54:30;10.30;;;3.50;;
5052;SDS011;2545;50.892;5.740;2023-12-20T08:56:55;21.73;;;5.30;;
5052;SDS011;2545;50.892;5.740;2023-12-20T08:59:21;14.57;;;4.03;;
5052;SDS011;2545;50.892;5.740;2023-12-20T09:01:48;14.80;;;4.47;;
5052;SDS011;2545;50.892;5.740;2023-12-20T09:04:19;35.53;;;4.83;;
5052;SDS011;2545;50.892;5.740;2023-12-20T09:06:46;11.80;;;4.70;;
5052;SDS011;2545;50.892;5.740;2023-12-20T09:09:11;13.83;;;4.17;;
5052;SDS011;2545;50.892;5.740;2023-12-20T09:11:38;19.37;;;3.43;;
5052;SDS011;2545;50.892;5.740;2023-12-20T09:14:04;25.53;;;5.77;;
5052;SDS011;2545;50.892;5.740;2023-12-20T09:16:29;17.17;;;4.00;;
5052;SDS011;2545;50.892;5.740;2023-12-20T09:18:56;19.27;;;3.40;;
5052;SDS011;2545;50.892;5.740;2023-12-20T09:21:23;17.53;;;3.83;;
5052;SDS011;2545;50.892;5.740;2023-12-20T09:23:48;19.33;;;4.07;;
5052;SDS011;2545;50.892;5.740;2023-12-20T09:26:14;8.83;;;2.97;;
5052;SDS011;2545;50.892;5.740;2023-12-20T09:28:40;26.33;;;3.93;;
5052;SDS011;2545;50.892;5.740;2023-12-20T09:31:06;17.70;;;3.13;;
5052;SDS011;2545;50.892;5.740;2023-12-20T09:33:32;18.17;;;5.53;;
5052;SDS011;2545;50.892;5.740;2023-12-20T09:35:58;13.23;;;5.50;;
5052;SDS011;2545;50.892;5.740;2023-12-20T09:38:24;9.13;;;2.93;;
5052;SDS011;2545;50.892;5.740;2023-12-20T09:40:50;9.13;;;3.03;;
5052;SDS011;2545;50.892;5.740;2023-12-20T09:43:15;18.67;;;4.90;;
5052;SDS011;2545;50.892;5.740;2023-12-20T09:45:45;19.23;;;3.47;;
5052;SDS011;2545;50.892;5.740;2023-12-20T09:48:13;12.30;;;3.23;;
5052;SDS011;2545;50.892;5.740;2023-12-20T09:50:43;8.60;;;2.70;;
5052;SDS011;2545;50.892;5.740;2023-12-20T09:53:09;12.17;;;3.27;;
5052;SDS011;2545;50.892;5.740;2023-12-20T09:55:36;33.63;;;5.00;;
5052;SDS011;2545;50.892;5.740;2023-12-20T09:58:07;25.17;;;3.67;;
5052;SDS011;2545;50.892;5.740;2023-12-20T10:00:34;10.67;;;4.17;;
5052;SDS011;2545;50.892;5.740;2023-12-20T10:03:00;13.50;;;3.90;;
5052;SDS011;2545;50.892;5.740;2023-12-20T10:05:27;10.87;;;3.10;;
5052;SDS011;2545;50.892;5.740;2023-12-20T10:07:55;16.73;;;3.30;;
5052;SDS011;2545;50.892;5.740;2023-12-20T10:10:20;18.20;;;3.60;;
5052;SDS011;2545;50.892;5.740;2023-12-20T10:13:03;36.17;;;4.80;;
5052;SDS011;2545;50.892;5.740;2023-12-20T10:15:31;7.60;;;3.00;;
5052;SDS011;2545;50.892;5.740;2023-12-20T10:18:01;12.03;;;5.13;;
5052;SDS011;2545;50.892;5.740;2023-12-20T10:20:30;7.57;;;3.40;;
5052;SDS011;2545;50.892;5.740;2023-12-20T10:22:56;13.70;;;2.97;;
5052;SDS011;2545;50.892;5.740;2023-12-20T10:25:23;10.53;;;3.80;;
5052;SDS011;2545;50.892;5.740;2023-12-20T10:27:49;12.23;;;3.80;;
5052;SDS011;2545;50.892;5.740;2023-12-20T10:30:15;19.83;;;5.07;;
5052;SDS011;2545;50.892;5.740;2023-12-20T10:32:41;18.67;;;4.30;;
5052;SDS011;2545;50.892;5.740;2023-12-20T10:35:06;20.87;;;4.00;;
5052;SDS011;2545;50.892;5.740;2023-12-20T10:37:39;13.17;;;3.57;;
5052;SDS011;2545;50.892;5.740;2023-12-20T10:40:05;9.90;;;3.10;;
5052;SDS011;2545;50.892;5.740;2023-12-20T10:42:32;33.97;;;4.57;;
5052;SDS011;2545;50.892;5.740;2023-12-20T10:45:01;15.23;;;3.70;;
5052;SDS011;2545;50.892;5.740;2023-12-20T10:47:26;8.97;;;3.53;;
5052;SDS011;2545;50.892;5.740;2023-12-20T10:49:53;17.63;;;4.30;;
5052;SDS011;2545;50.892;5.740;2023-12-20T10:52:19;16.47;;;4.43;;
5052;SDS011;2545;50.892;5.740;2023-12-20T10:54:48;21.03;;;5.60;;
5052;SDS011;2545;50.892;5.740;2023-12-20T10:57:15;10.83;;;3.40;;
5052;SDS011;2545;50.892;5.740;2023-12-20T10:59:43;25.07;;;4.50;;
5052;SDS011;2545;50.892;5.740;2023-12-20T11:02:12;17.40;;;3.80;;
5052;SDS011;2545;50.892;5.740;2023-12-20T11:04:44;16.93;;;5.00;;
5052;SDS011;2545;50.892;5.740;2023-12-20T11:07:25;14.23;;;3.80;;
5052;SDS011;2545;50.892;5.740;2023-12-20T11:15:38;13.77;;;3.77;;
5052;SDS011;2545;50.892;5.740;2023-12-20T11:18:03;14.23;;;4.10;;
5052;SDS011;2545;50.892;5.740;2023-12-20T11:20:37;26.73;;;4.20;;
5052;SDS011;2545;50.892;5.740;2023-12-20T11:23:05;28.53;;;4.10;;
5052;SDS011;2545;50.892;5.740;2023-12-20T11:25:47;18.63;;;4.30;;
5052;SDS011;2545;50.892;5.740;2023-12-20T11:28:23;18.23;;;4.00;;
5052;SDS011;2545;50.892;5.740;2023-12-20T11:30:50;20.00;;;4.90;;
5052;SDS011;2545;50.892;5.740;2023-12-20T11:33:21;20.00;;;3.73;;
5052;SDS011;2545;50.892;5.740;2023-12-20T11:35:48;15.83;;;3.70;;
5052;SDS011;2545;50.892;5.740;2023-12-20T11:38:13;6.50;;;3.77;;
5052;SDS011;2545;50.892;5.740;2023-12-20T11:40:40;15.43;;;4.37;;
5052;SDS011;2545;50.892;5.740;2023-12-20T11:43:07;6.80;;;3.37;;
5052;SDS011;2545;50.892;5.740;2023-12-20T11:45:32;23.00;;;4.03;;
5052;SDS011;2545;50.892;5.740;2023-12-20T11:47:59;23.17;;;4.10;;
5052;SDS011;2545;50.892;5.740;2023-12-20T11:50:25;13.00;;;4.63;;
5052;SDS011;2545;50.892;5.740;2023-12-20T11:52:51;13.60;;;3.90;;
5052;SDS011;2545;50.892;5.740;2023-12-20T11:55:18;13.73;;;3.50;;
5052;SDS011;2545;50.892;5.740;2023-12-20T11:57:45;14.87;;;3.60;;
5052;SDS011;2545;50.892;5.740;2023-12-20T12:00:11;8.60;;;3.37;;
5052;SDS011;2545;50.892;5.740;2023-12-20T12:02:39;16.63;;;3.90;;
5052;SDS011;2545;50.892;5.740;2023-12-20T12:05:05;14.40;;;4.80;;
5052;SDS011;2545;50.892;5.740;2023-12-20T12:07:31;15.63;;;4.27;;
5052;SDS011;2545;50.892;5.740;2023-12-20T12:09:59;20.00;;;3.97;;
5052;SDS011;2545;50.892;5.740;2023-12-20T12:12:25;11.70;;;4.30;;
5052;SDS011;2545;50.892;5.740;2023-12-20T12:14:52;15.80;;;3.87;;
5052;SDS011;2545;50.892;5.740;2023-12-20T12:17:18;22.50;;;4.03;;
5052;SDS011;2545;50.892;5.740;2023-12-20T12:19:43;18.07;;;5.07;;
5052;SDS011;2545;50.892;5.740;2023-12-20T12:22:16;9.23;;;3.57;;
5052;SDS011;2545;50.892;5.740;2023-12-20T12:24:45;13.80;;;4.30;;
5052;SDS011;2545;50.892;5.740;2023-12-20T12:27:12;5.37;;;2.97;;
5052;SDS011;2545;50.892;5.740;2023-12-20T12:29:38;14.53;;;3.50;;
5052;SDS011;2545;50.892;5.740;2023-12-20T12:32:04;15.07;;;4.10;;
5052;SDS011;2545;50.892;5.740;2023-12-20T12:34:34;20.10;;;4.10;;
5052;SDS011;2545;50.892;5.740;2023-12-20T12:37:01;18.43;;;4.00;;
5052;SDS011;2545;50.892;5.740;2023-12-20T12:39:26;15.87;;;4.20;;
5052;SDS011;2545;50.892;5.740;2023-12-20T12:41:52;16.30;;;4.83;;
5052;SDS011;2545;50.892;5.740;2023-12-20T12:44:18;21.77;;;3.90;;
5052;SDS011;2545;50.892;5.740;2023-12-20T12:46:45;9.67;;;3.53;;
5052;SDS011;2545;50.892;5.740;2023-12-20T12:49:11;11.63;;;4.00;;
5052;SDS011;2545;50.892;5.740;2023-12-20T12:51:36;24.47;;;6.70;;
5052;SDS011;2545;50.892;5.740;2023-12-20T12:54:03;26.17;;;5.70;;
5052;SDS011;2545;50.892;5.740;2023-12-20T12:56:28;17.00;;;4.90;;
5052;SDS011;2545;50.892;5.740;2023-12-20T12:58:54;22.33;;;5.30;;
5052;SDS011;2545;50.892;5.740;2023-12-20T13:01:22;20.87;;;4.30;;
5052;SDS011;2545;50.892;5.740;2023-12-20T13:03:48;20.80;;;5.23;;
5052;SDS011;2545;50.892;5.740;2023-12-20T13:06:14;11.57;;;4.00;;
5052;SDS011;2545;50.892;5.740;2023-12-20T13:08:39;17.03;;;5.30;;
5052;SDS011;2545;50.892;5.740;2023-12-20T13:11:04;21.90;;;4.97;;
5052;SDS011;2545;50.892;5.740;2023-12-20T13:13:30;16.10;;;5.37;;
5052;SDS011;2545;50.892;5.740;2023-12-20T13:15:56;15.40;;;5.43;;
5052;SDS011;2545;50.892;5.740;2023-12-20T13:18:24;12.70;;;4.50;;
5052;SDS011;2545;50.892;5.740;2023-12-20T13:20:54;23.10;;;4.65;;
5052;SDS011;2545;50.892;5.740;2023-12-20T13:23:24;12.30;;;4.90;;
5052;SDS011;2545;50.892;5.740;2023-12-20T13:25:49;21.10;;;5.10;;
5052;SDS011;2545;50.892;5.740;2023-12-20T13:28:15;11.87;;;4.37;;
5052;SDS011;2545;50.892;5.740;2023-12-20T13:30:41;14.83;;;4.50;;
5052;SDS011;2545;50.892;5.740;2023-12-20T13:33:06;17.83;;;4.57;;
5052;SDS011;2545;50.892;5.740;2023-12-20T13:35:32;16.27;;;4.27;;
5052;SDS011;2545;50.892;5.740;2023-12-20T13:37:58;12.13;;;4.80;;
5052;SDS011;2545;50.892;5.740;2023-12-20T13:40:24;14.27;;;4.13;;
5052;SDS011;2545;50.892;5.740;2023-12-20T13:42:49;16.13;;;5.33;;
5052;SDS011;2545;50.892;5.740;2023-12-20T13:45:15;13.37;;;4.63;;
5052;SDS011;2545;50.892;5.740;2023-12-20T13:47:41;9.83;;;4.00;;
5052;SDS011;2545;50.892;5.740;2023-12-20T13:50:08;15.23;;;4.80;;
5052;SDS011;2545;50.892;5.740;2023-12-20T13:52:34;10.10;;;4.00;;
5052;SDS011;2545;50.892;5.740;2023-12-20T13:55:02;13.60;;;3.80;;
5052;SDS011;2545;50.892;5.740;2023-12-20T13:57:31;11.17;;;4.53;;
5052;SDS011;2545;50.892;5.740;2023-12-20T13:59:57;22.27;;;5.77;;
5052;SDS011;2545;50.892;5.740;2023-12-20T14:02:23;12.90;;;3.80;;
5052;SDS011;2545;50.892;5.740;2023-12-20T14:04:48;8.40;;;3.57;;
5052;SDS011;2545;50.892;5.740;2023-12-20T14:07:13;25.27;;;5.03;;
5052;SDS011;2545;50.892;5.740;2023-12-20T14:09:39;11.07;;;3.90;;
5052;SDS011;2545;50.892;5.740;2023-12-20T14:12:11;12.80;;;3.20;;
5052;SDS011;2545;50.892;5.740;2023-12-20T14:14:37;14.07;;;4.37;;
5052;SDS011;2545;50.892;5.740;2023-12-20T14:17:02;17.13;;;4.80;;
5052;SDS011;2545;50.892;5.740;2023-12-20T14:19:29;10.20;;;4.10;;
5052;SDS011;2545;50.892;5.740;2023-12-20T14:21:54;13.77;;;4.77;;
5052;SDS011;2545;50.892;5.740;2023-12-20T14:24:19;17.07;;;5.07;;
5052;SDS011;2545;50.892;5.740;2023-12-20T14:26:45;9.17;;;4.23;;
5052;SDS011;2545;50.892;5.740;2023-12-20T14:29:14;16.20;;;5.10;;
5052;SDS011;2545;50.892;5.740;2023-12-20T14:31:39;4.70;;;3.60;;
5052;SDS011;2545;50.892;5.740;2023-12-20T14:34:05;12.90;;;5.50;;
5052;SDS011;2545;50.892;5.740;2023-12-20T14:36:31;17.10;;;5.20;;
5052;SDS011;2545;50.892;5.740;2023-12-20T14:38:59;8.70;;;3.70;;
5052;SDS011;2545;50.892;5.740;2023-12-20T14:41:26;13.73;;;3.70;;
5052;SDS011;2545;50.892;5.740;2023-12-20T14:43:51;17.13;;;4.20;;
5052;SDS011;2545;50.892;5.740;2023-12-20T14:46:18;20.13;;;4.30;;
5052;SDS011;2545;50.892;5.740;2023-12-20T14:48:44;8.17;;;3.47;;
5052;SDS011;2545;50.892;5.740;2023-12-20T14:51:10;18.80;;;4.90;;
5052;SDS011;2545;50.892;5.740;2023-12-20T14:53:36;12.87;;;4.63;;
5052;SDS011;2545;50.892;5.740;2023-12-20T14:56:04;13.60;;;4.07;;
5052;SDS011;2545;50.892;5.740;2023-12-20T14:58:30;17.23;;;4.07;;
5052;SDS011;2545;50.892;5.740;2023-12-20T15:00:56;15.37;;;4.17;;
5052;SDS011;2545;50.892;5.740;2023-12-20T15:03:22;12.97;;;4.13;;